Urb Alto Apolo States, Puerto Rico
Current Conditions -  °F | °C
As of 11:56 AM on Friday 24 Oct 2014 (Local Time) from TJSJ Reporting Station
Scattered Clouds Scattered Clouds  
Wind Chill: 92°   Ceiling: Unl
Heat Index: 102°   Visibility: 10mi
Dew Point: 74°   Wind: 8mph
Humidity: 55%   Direction: 140°SE
Pressure: 29.92"   Gusts: 18mph
Location:  18.3866°N, 66.1135°W
Report Text: TJSJ 241556Z 14007G16KT 10SM FEW035 SCT090 33/23 A2992 RMK AO2 SLP131 T03330233
Loading
Personal Weather Stations






























Interactive Weather Map
Tropical Storm Tracking
New forecast layout! Learn more

10-Day Weather Forecast

Advertisements
Track Severe Weather on mobile